Time;durP1;ratioP1;P1;durP2;ratioP2;P2;SDS_P1;SDS_P2;PMS_P1;PMS_P2;Temp;Humidity;BMP_temperature;BMP_pressure;BME280_temperature;BME280_humidity;BME280_pressure;Samples;Min_cycle;Max_cycle;Signal;HPM_P1;HPM_P2
2021/12/19 00:00:02;;;;;;;2.65;2.45;;;23.60;30.10;;;;;;5127977;27;46810;-28
2021/12/19 00:02:44;;;;;;;2.75;2.55;;;23.50;30.10;;;;;;5128318;27;46894;-27
2021/12/19 00:10:40;;;;;;;2.78;2.58;;;23.50;30.40;;;;;;5128147;27;46905;-27
2021/12/19 00:13:08;;;;;;;3.05;2.67;;;23.50;30.40;;;;;;5128190;27;46918;-28
2021/12/19 00:15:35;;;;;;;2.83;2.63;;;23.50;30.30;;;;;;5127738;27;48128;-28
2021/12/19 00:18:02;;;;;;;3.35;2.95;;;23.50;30.20;;;;;;5127987;27;47444;-28
2021/12/19 00:20:30;;;;;;;2.60;2.40;;;23.50;30.20;;;;;;5127600;27;47036;-28
2021/12/19 00:22:57;;;;;;;2.40;2.25;;;23.50;30.30;;;;;;5128102;27;47271;-27
2021/12/19 00:25:23;;;;;;;2.67;2.47;;;23.50;31.00;;;;;;5126341;27;47856;-27
2021/12/19 00:27:50;;;;;;;3.25;2.80;;;23.50;30.30;;;;;;5127811;27;46923;-27
2021/12/19 00:30:17;;;;;;;2.70;2.50;;;23.50;30.20;;;;;;5127583;27;47073;-28
2021/12/19 00:32:43;;;;;;;2.85;2.65;;;23.60;30.20;;;;;;5128042;27;46996;-27
2021/12/19 00:35:10;;;;;;;3.08;2.83;;;23.60;30.10;;;;;;5127053;27;46797;-28
2021/12/19 00:37:38;;;;;;;3.25;2.67;;;23.60;30.00;;;;;;5127417;27;46845;-28
2021/12/19 00:40:06;;;;;;;2.97;2.78;;;23.60;30.00;;;;;;5127180;27;46924;-27
2021/12/19 00:42:35;;;;;;;4.20;2.90;;;23.60;30.00;;;;;;5127622;27;46934;-28
2021/12/19 00:45:05;;;;;;;2.63;2.42;;;23.60;30.10;;;;;;5126376;27;48019;-28
2021/12/19 00:47:32;;;;;;;3.33;2.63;;;23.60;30.10;;;;;;5127614;27;46960;-27
2021/12/19 00:49:58;;;;;;;2.92;2.63;;;23.60;30.00;;;;;;5126991;27;46837;-27
2021/12/19 00:52:25;;;;;;;2.90;2.70;;;23.70;30.00;;;;;;5127339;27;46900;-27
2021/12/19 00:54:53;;;;;;;2.90;2.60;;;23.70;30.00;;;;;;5127045;27;48898;-27
2021/12/19 00:57:20;;;;;;;2.72;2.53;;;23.70;30.00;;;;;;5127505;27;47261;-28
2021/12/19 00:59:46;;;;;;;3.13;2.50;;;23.60;30.00;;;;;;5127214;27;46859;-28
2021/12/19 01:02:13;;;;;;;2.83;2.63;;;23.60;30.00;;;;;;5127293;27;46883;-27
2021/12/19 01:04:40;;;;;;;3.30;3.00;;;23.60;30.10;;;;;;5127063;27;48875;-28
2021/12/19 01:07:07;;;;;;;2.90;2.70;;;23.50;30.20;;;;;;5127158;27;46801;-28
2021/12/19 01:09:34;;;;;;;2.95;2.65;;;23.40;30.30;;;;;;5126883;27;46785;-27
2021/12/19 01:12:03;;;;;;;3.10;2.90;;;23.30;30.40;;;;;;5127165;27;47092;-28
2021/12/19 01:14:29;;;;;;;2.92;2.72;;;23.20;30.50;;;;;;5126733;27;47075;-28
2021/12/19 01:16:56;;;;;;;2.70;2.50;;;23.20;30.50;;;;;;5126788;27;46869;-28
2021/12/19 01:19:23;;;;;;;3.20;2.90;;;23.10;30.60;;;;;;5126661;27;46915;-27
2021/12/19 01:21:50;;;;;;;3.08;2.78;;;23.00;30.70;;;;;;5127566;27;47209;-27
2021/12/19 01:24:17;;;;;;;2.92;2.60;;;22.90;30.80;;;;;;5126610;27;46997;-28
2021/12/19 01:26:44;;;;;;;2.90;2.70;;;22.80;30.90;;;;;;5126940;27;46935;-27
2021/12/19 01:29:12;;;;;;;2.80;2.60;;;22.70;31.10;;;;;;5126632;27;46820;-27
2021/12/19 01:31:39;;;;;;;2.78;2.58;;;22.80;31.10;;;;;;5126737;27;46902;-28
2021/12/19 01:34:05;;;;;;;2.78;2.53;;;22.90;31.00;;;;;;5126152;27;48012;-28
2021/12/19 01:36:32;;;;;;;3.10;2.90;;;23.00;30.80;;;;;;5126343;27;46842;-27
2021/12/19 01:38:59;;;;;;;3.10;2.80;;;23.10;30.60;;;;;;5126357;27;46883;-28
2021/12/19 01:41:25;;;;;;;3.40;3.10;;;23.20;30.50;;;;;;5126751;27;46841;-27
2021/12/19 01:43:52;;;;;;;2.83;2.63;;;23.20;30.40;;;;;;5125768;27;48775;-27
2021/12/19 01:46:21;;;;;;;3.33;3.05;;;23.30;30.50;;;;;;5126426;27;46879;-27
2021/12/19 01:48:48;;;;;;;3.28;2.80;;;23.30;30.40;;;;;;5125987;27;46910;-27
2021/12/19 01:51:15;;;;;;;3.30;3.00;;;23.40;30.30;;;;;;5126603;27;47263;-27
2021/12/19 01:53:41;;;;;;;3.10;2.80;;;23.50;30.30;;;;;;5126091;27;48260;-27
2021/12/19 01:56:08;;;;;;;3.30;3.00;;;23.50;30.10;;;;;;5126226;27;46836;-27
2021/12/19 01:58:35;;;;;;;3.05;2.75;;;23.60;30.10;;;;;;5126393;27;47036;-28
2021/12/19 02:01:02;;;;;;;3.40;3.10;;;23.60;30.10;;;;;;5126644;27;47083;-28
2021/12/19 02:03:30;;;;;;;3.30;3.00;;;23.60;30.10;;;;;;5126249;27;48940;-28
2021/12/19 02:05:57;;;;;;;3.53;3.22;;;23.60;30.10;;;;;;5126238;27;46837;-27
2021/12/19 02:08:24;;;;;;;3.50;3.20;;;23.60;30.00;;;;;;5126298;27;46904;-28
2021/12/19 02:10:50;;;;;;;3.55;3.08;;;23.60;30.00;;;;;;5126712;27;47459;-28
2021/12/19 02:13:17;;;;;;;2.88;2.67;;;23.60;30.00;;;;;;5126020;27;48163;-27
2021/12/19 02:15:44;;;;;;;2.83;2.60;;;23.60;30.00;;;;;;5125902;27;46877;-27
2021/12/19 02:18:12;;;;;;;2.92;2.72;;;23.50;30.10;;;;;;5125967;27;46909;-27
2021/12/19 02:20:41;;;;;;;3.28;2.97;;;23.50;30.40;;;;;;5126278;27;47190;-27
2021/12/19 02:23:09;;;;;;;3.25;2.90;;;23.50;30.20;;;;;;5126111;27;47789;-28
2021/12/19 02:25:36;;;;;;;2.97;2.78;;;23.40;30.20;;;;;;5125475;27;46922;-28
2021/12/19 02:28:03;;;;;;;4.22;3.22;;;23.30;30.40;;;;;;5126193;27;47039;-27
2021/12/19 02:30:29;;;;;;;3.25;2.95;;;23.20;30.40;;;;;;5125993;27;46798;-27
2021/12/19 02:32:56;;;;;;;3.38;3.08;;;23.20;30.50;;;;;;5125629;27;46886;-27
2021/12/19 02:35:27;;;;;;;3.35;3.05;;;23.10;30.50;;;;;;5125601;27;47079;-27
2021/12/19 02:49:00;;;;;;;3.00;2.80;;;23.00;30.60;;;;;;5125867;27;46927;-28
2021/12/19 02:51:32;;;;;;;2.95;2.75;;;23.10;30.40;;;;;;5129685;27;47272;-28
2021/12/19 02:54:00;;;;;;;3.20;2.72;;;23.20;30.40;;;;;;5128697;27;49035;-28
2021/12/19 02:56:27;;;;;;;3.05;2.75;;;23.20;30.50;;;;;;5129078;27;47416;-28
2021/12/19 02:58:54;;;;;;;3.60;3.30;;;23.20;30.50;;;;;;5128631;27;46813;-28
2021/12/19 03:01:21;;;;;;;3.55;3.05;;;23.30;30.30;;;;;;5129614;27;46893;-27
2021/12/19 03:03:48;;;;;;;3.33;3.03;;;23.30;30.20;;;;;;5128867;27;48099;-28
2021/12/19 03:06:15;;;;;;;3.30;3.00;;;23.40;30.10;;;;;;5129213;27;46883;-28
2021/12/19 03:08:45;;;;;;;3.33;3.03;;;23.50;30.10;;;;;;5128853;27;46741;-28
2021/12/19 03:11:48;;;;;;;3.33;3.00;;;23.50;30.00;;;;;;5129320;27;47046;-28
2021/12/19 03:19:40;;;;;;;3.17;2.88;;;23.50;30.00;;;;;;5127452;27;46966;-28
2021/12/19 03:22:07;;;;;;;3.40;3.10;;;23.50;30.00;;;;;;5128889;27;46885;-28
2021/12/19 03:24:33;;;;;;;3.33;2.95;;;23.60;30.00;;;;;;5128139;27;48671;-27
2021/12/19 03:27:01;;;;;;;3.22;2.92;;;23.60;29.90;;;;;;5128523;27;46910;-27
2021/12/19 03:29:28;;;;;;;3.50;3.20;;;23.60;29.90;;;;;;5128472;27;46914;-27
2021/12/19 03:31:55;;;;;;;3.15;2.85;;;23.60;29.90;;;;;;5128963;27;47133;-27
2021/12/19 03:34:21;;;;;;;3.08;2.78;;;23.50;30.00;;;;;;5128316;27;47032;-27
2021/12/19 03:36:48;;;;;;;3.83;3.47;;;23.50;30.00;;;;;;5128419;27;46836;-27
2021/12/19 03:39:25;;;;;;;3.30;3.00;;;23.50;30.00;;;;;;5128160;27;46962;-27
2021/12/19 03:41:54;;;;;;;3.40;3.10;;;23.50;30.50;;;;;;5128900;27;46914;-28
2021/12/19 03:44:22;;;;;;;3.00;2.70;;;23.50;29.90;;;;;;5127524;27;48791;-28
2021/12/19 03:46:49;;;;;;;3.40;3.05;;;23.50;30.00;;;;;;5128510;27;46982;-28
2021/12/19 03:49:18;;;;;;;3.55;3.25;;;23.50;30.00;;;;;;5128442;27;47010;-28
2021/12/19 03:51:45;;;;;;;3.13;2.83;;;23.50;30.00;;;;;;5128502;27;47168;-28
2021/12/19 03:54:11;;;;;;;3.17;2.90;;;23.40;30.00;;;;;;5128195;27;47141;-28
2021/12/19 03:56:38;;;;;;;3.20;2.80;;;23.40;30.00;;;;;;5128388;27;47437;-27
2021/12/19 03:59:05;;;;;;;3.33;3.03;;;23.40;30.00;;;;;;5127917;27;46882;-27
2021/12/19 04:01:33;;;;;;;3.20;2.90;;;23.40;30.00;;;;;;5128556;27;47043;-27
2021/12/19 04:04:00;;;;;;;3.50;3.20;;;23.40;30.00;;;;;;5127843;27;46915;-28
2021/12/19 04:06:27;;;;;;;3.00;2.80;;;23.40;30.00;;;;;;5128020;27;46919;-28
2021/12/19 04:08:56;;;;;;;3.25;2.95;;;23.40;30.00;;;;;;5127533;27;46875;-28
2021/12/19 04:11:24;;;;;;;3.25;2.80;;;23.40;30.00;;;;;;5128212;27;47070;-27
2021/12/19 04:13:51;;;;;;;3.47;3.17;;;23.30;30.00;;;;;;5127707;27;47261;-27
2021/12/19 04:16:18;;;;;;;3.55;3.25;;;23.30;30.00;;;;;;5127744;27;47134;-27
2021/12/19 04:18:46;;;;;;;3.65;3.22;;;23.30;30.00;;;;;;5127461;27;46911;-28
2021/12/19 04:21:12;;;;;;;3.33;3.03;;;23.30;30.00;;;;;;5127918;27;46915;-27
2021/12/19 04:23:40;;;;;;;3.47;3.13;;;23.30;30.00;;;;;;5127366;27;49051;-27
2021/12/19 04:26:07;;;;;;;3.10;2.80;;;23.40;30.00;;;;;;5127770;27;46892;-28
2021/12/19 04:28:34;;;;;;;3.33;3.03;;;23.40;30.00;;;;;;5127657;27;46903;-27
2021/12/19 04:31:02;;;;;;;4.53;3.40;;;23.30;29.90;;;;;;5127800;27;47241;-27
2021/12/19 04:33:29;;;;;;;2.90;2.70;;;23.30;30.00;;;;;;5127617;27;47794;-28
2021/12/19 04:36:01;;;;;;;3.15;2.85;;;23.30;30.00;;;;;;5127484;27;47097;-27
2021/12/19 04:41:42;;;;;;;2.83;2.55;;;23.30;30.00;;;;;;5124963;27;47190;-28
2021/12/19 04:51:01;;;;;;;2.95;2.75;;;23.40;30.00;;;;;;5125798;27;47112;-28
2021/12/19 04:55:56;;;;;;;3.03;2.80;;;23.30;30.00;;;;;;5126742;27;46859;-27
2021/12/19 05:01:19;;;;;;;3.05;2.75;;;23.30;30.00;;;;;;5124763;27;47035;-28
2021/12/19 05:03:51;;;;;;;3.20;2.88;;;23.30;30.00;;;;;;5127115;27;47110;-28
2021/12/19 05:06:33;;;;;;;3.35;3.03;;;23.30;30.00;;;;;;5127267;27;49161;-28
2021/12/19 05:14:35;;;;;;;3.13;2.83;;;23.20;30.00;;;;;;5126308;27;46878;-28
2021/12/19 05:17:06;;;;;;;3.30;3.00;;;23.20;30.00;;;;;;5127030;27;47958;-28
2021/12/19 05:19:44;;;;;;;3.80;3.10;;;23.20;30.00;;;;;;5126653;27;47183;-27
2021/12/19 05:22:11;;;;;;;2.70;2.38;;;23.20;30.00;;;;;;5127408;27;46957;-27
2021/12/19 05:24:49;;;;;;;3.30;3.00;;;23.20;30.00;;;;;;5126797;27;46731;-27
2021/12/19 05:27:16;;;;;;;2.60;2.40;;;23.20;30.00;;;;;;5127028;27;48123;-28
2021/12/19 05:29:43;;;;;;;2.83;2.63;;;23.20;30.00;;;;;;5126589;27;47134;-28
2021/12/19 05:32:10;;;;;;;2.78;2.58;;;23.20;30.00;;;;;;5126578;27;47150;-27
2021/12/19 05:34:36;;;;;;;2.97;2.75;;;23.20;30.00;;;;;;5126531;27;47118;-27
2021/12/19 05:45:20;;;;;;;2.70;2.50;;;23.30;30.00;;;;;;5125564;27;46844;-27
2021/12/19 05:47:47;;;;;;;2.75;2.55;;;23.30;30.00;;;;;;5126512;27;47697;-27
2021/12/19 05:50:14;;;;;;;2.70;2.47;;;23.20;30.00;;;;;;5125826;27;47094;-28
2021/12/19 05:52:41;;;;;;;2.70;2.50;;;23.20;30.00;;;;;;5126379;27;46846;-28
2021/12/19 05:55:09;;;;;;;3.00;2.70;;;23.20;30.00;;;;;;5126295;27;47478;-28
2021/12/19 05:57:36;;;;;;;2.65;2.45;;;23.20;30.00;;;;;;5126510;27;46868;-27
2021/12/19 06:00:04;;;;;;;2.80;2.50;;;23.20;30.00;;;;;;5126210;27;47470;-27
2021/12/19 06:02:30;;;;;;;2.67;2.47;;;23.20;30.00;;;;;;5126599;27;46885;-28
2021/12/19 06:04:57;;;;;;;2.35;2.22;;;23.30;30.50;;;;;;5126053;27;46856;-28
2021/12/19 06:07:24;;;;;;;2.67;2.40;;;23.20;30.00;;;;;;5126316;27;47095;-27
2021/12/19 06:09:51;;;;;;;2.63;2.40;;;23.20;30.00;;;;;;5125848;27;47486;-27
2021/12/19 06:12:19;;;;;;;2.35;2.15;;;23.20;30.00;;;;;;5126386;27;46836;-27
2021/12/19 06:14:45;;;;;;;2.47;2.28;;;23.20;30.00;;;;;;5126235;27;47199;-29
2021/12/19 06:17:12;;;;;;;3.08;2.80;;;23.20;30.00;;;;;;5126529;27;47085;-27
2021/12/19 06:19:39;;;;;;;2.75;2.45;;;23.20;29.90;;;;;;5125784;27;46816;-28
2021/12/19 06:22:07;;;;;;;2.45;2.25;;;23.20;29.90;;;;;;5127250;27;46902;-27
2021/12/19 06:24:33;;;;;;;2.65;2.42;;;23.20;30.00;;;;;;5129664;27;47119;-28
2021/12/19 06:27:00;;;;;;;2.40;2.20;;;23.20;30.00;;;;;;5129756;27;49069;-28
2021/12/19 06:29:29;;;;;;;2.53;2.33;;;23.20;30.00;;;;;;5129783;27;46896;-28
2021/12/19 06:31:55;;;;;;;2.70;2.50;;;23.20;30.00;;;;;;5129641;27;46810;-28
2021/12/19 06:34:22;;;;;;;2.80;2.50;;;23.20;30.00;;;;;;5129426;27;46840;-28
2021/12/19 06:36:50;;;;;;;2.42;2.22;;;23.20;29.90;;;;;;5129419;27;48011;-27
2021/12/19 06:39:17;;;;;;;2.45;2.25;;;23.20;29.80;;;;;;5129018;27;46937;-28
2021/12/19 06:41:43;;;;;;;2.78;2.58;;;23.30;29.80;;;;;;5129740;27;46794;-28
2021/12/19 06:44:10;;;;;;;2.70;2.50;;;23.30;29.80;;;;;;5128855;27;47270;-28
2021/12/19 06:46:38;;;;;;;2.60;2.40;;;23.30;29.80;;;;;;5129480;27;48094;-28
2021/12/19 06:49:05;;;;;;;2.67;2.47;;;23.30;29.70;;;;;;5128937;27;46935;-27
2021/12/19 06:51:32;;;;;;;2.70;2.50;;;23.40;29.70;;;;;;5129415;27;46927;-28
2021/12/19 06:53:58;;;;;;;2.58;2.38;;;23.40;29.60;;;;;;5129248;27;46911;-28
2021/12/19 06:56:25;;;;;;;2.67;2.47;;;23.50;29.60;;;;;;5129310;27;46889;-27
2021/12/19 06:58:52;;;;;;;2.97;2.78;;;23.50;29.60;;;;;;5129001;27;47442;-28
2021/12/19 07:01:18;;;;;;;2.45;2.25;;;23.50;29.60;;;;;;5129118;27;46881;-27
2021/12/19 07:03:47;;;;;;;2.65;2.45;;;23.50;29.60;;;;;;5128980;27;47268;-27
2021/12/19 07:06:13;;;;;;;2.90;2.70;;;23.50;29.60;;;;;;5129211;27;47961;-27
2021/12/19 07:08:40;;;;;;;2.88;2.58;;;23.50;29.50;;;;;;5128591;27;46860;-27
2021/12/19 07:11:07;;;;;;;2.65;2.42;;;23.50;29.50;;;;;;5129117;27;47030;-27
2021/12/19 07:13:33;;;;;;;2.50;2.30;;;23.60;29.50;;;;;;5128811;27;46894;-27
2021/12/19 07:16:00;;;;;;;2.47;2.28;;;23.50;29.40;;;;;;5129040;27;46940;-27
2021/12/19 07:18:27;;;;;;;2.92;2.35;;;23.60;29.50;;;;;;5128440;27;46918;-27
2021/12/19 07:20:55;;;;;;;2.75;2.55;;;23.60;29.40;;;;;;5129069;27;46767;-27
2021/12/19 07:23:22;;;;;;;2.50;2.30;;;23.50;29.40;;;;;;5128922;27;47255;-27
2021/12/19 07:25:48;;;;;;;2.67;2.47;;;23.50;29.50;;;;;;5128946;27;47067;-27
2021/12/19 07:28:15;;;;;;;3.15;2.85;;;23.50;29.50;;;;;;5128750;27;47240;-27
2021/12/19 07:30:42;;;;;;;2.80;2.60;;;23.50;29.50;;;;;;5128792;27;46903;-27
2021/12/19 07:33:09;;;;;;;2.70;2.50;;;23.50;29.50;;;;;;5128556;27;46837;-27
2021/12/19 07:35:38;;;;;;;2.67;2.47;;;23.50;29.50;;;;;;5128077;27;47040;-28
2021/12/19 07:38:08;;;;;;;2.58;2.38;;;23.50;29.50;;;;;;5128466;27;46919;-28
2021/12/19 07:40:38;;;;;;;2.40;2.20;;;23.40;29.50;;;;;;5128317;27;47197;-28
2021/12/19 07:43:05;;;;;;;2.75;2.45;;;23.40;29.60;;;;;;5128593;27;47126;-28
2021/12/19 07:45:32;;;;;;;2.80;2.60;;;23.40;29.60;;;;;;5127863;27;47006;-28
2021/12/19 07:47:58;;;;;;;2.30;2.10;;;23.40;29.60;;;;;;5128165;27;46751;-27
2021/12/19 07:50:25;;;;;;;2.50;2.30;;;23.40;29.60;;;;;;5128253;27;46731;-27
2021/12/19 07:52:52;;;;;;;2.80;2.60;;;23.30;29.60;;;;;;5128717;27;47253;-27
2021/12/19 07:55:20;;;;;;;2.30;2.10;;;23.30;29.70;;;;;;5127739;27;47824;-28
2021/12/19 07:57:47;;;;;;;2.60;2.40;;;23.20;29.70;;;;;;5128365;27;47132;-28
2021/12/19 08:00:14;;;;;;;2.53;2.33;;;23.20;29.70;;;;;;5128307;27;46995;-27
2021/12/19 08:02:41;;;;;;;2.92;2.72;;;23.20;29.70;;;;;;5128751;27;46918;-28
2021/12/19 08:05:08;;;;;;;2.55;2.35;;;23.20;29.70;;;;;;5127632;27;47846;-28
2021/12/19 08:07:35;;;;;;;2.63;2.42;;;23.20;29.70;;;;;;5128571;27;47002;-27
2021/12/19 08:10:13;;;;;;;2.67;2.47;;;23.30;29.70;;;;;;5127752;27;46870;-28
2021/12/19 08:12:41;;;;;;;2.90;2.60;;;23.20;29.60;;;;;;5128424;27;46948;-28
2021/12/19 08:15:08;;;;;;;3.13;2.70;;;23.20;29.70;;;;;;5127730;27;47090;-28
2021/12/19 08:17:35;;;;;;;2.50;2.30;;;23.20;29.70;;;;;;5127838;27;46886;-27
2021/12/19 08:20:02;;;;;;;2.55;2.35;;;23.20;29.70;;;;;;5127353;27;46897;-28
2021/12/19 08:22:30;;;;;;;3.17;2.80;;;23.30;29.70;;;;;;5127995;27;46871;-27
2021/12/19 08:24:57;;;;;;;2.45;2.25;;;23.30;29.60;;;;;;5127245;27;47204;-28
2021/12/19 08:27:24;;;;;;;2.58;2.38;;;23.30;29.60;;;;;;5127673;27;46880;-28
2021/12/19 08:29:54;;;;;;;2.60;2.40;;;23.30;29.50;;;;;;5127732;27;46993;-28
2021/12/19 08:32:21;;;;;;;2.85;2.30;;;23.30;29.50;;;;;;5128423;27;46825;-27
2021/12/19 08:34:47;;;;;;;2.55;2.35;;;23.30;29.50;;;;;;5127137;27;46954;-28
2021/12/19 08:37:15;;;;;;;2.47;2.25;;;23.30;29.60;;;;;;5127882;27;47015;-27
2021/12/19 08:39:42;;;;;;;2.60;2.40;;;23.30;29.60;;;;;;5127493;27;46882;-28
2021/12/19 08:42:09;;;;;;;2.70;2.50;;;23.30;29.60;;;;;;5127560;27;46816;-28
2021/12/19 08:44:36;;;;;;;2.60;2.40;;;23.40;29.50;;;;;;5126852;27;49300;-28
2021/12/19 08:47:04;;;;;;;2.55;2.35;;;23.40;29.50;;;;;;5126624;27;46985;-27
2021/12/19 08:49:31;;;;;;;2.42;2.22;;;23.40;29.50;;;;;;5127399;27;46869;-28
2021/12/19 08:51:58;;;;;;;2.42;2.22;;;23.40;29.50;;;;;;5127317;27;46901;-27
2021/12/19 08:54:24;;;;;;;2.17;2.08;;;23.40;29.40;;;;;;5126708;27;47897;-27
2021/12/19 08:56:51;;;;;;;2.40;2.20;;;23.40;29.50;;;;;;5127113;27;46818;-27
2021/12/19 08:59:18;;;;;;;2.50;2.30;;;23.40;29.50;;;;;;5126766;27;47067;-28
2021/12/19 09:01:44;;;;;;;2.33;2.10;;;23.30;29.50;;;;;;5127009;27;47046;-28
2021/12/19 09:04:12;;;;;;;2.40;2.20;;;23.40;29.50;;;;;;5126622;27;46838;-28
2021/12/19 09:06:39;;;;;;;2.30;2.20;;;23.40;29.50;;;;;;5127102;27;46808;-27
2021/12/19 09:09:06;;;;;;;2.63;2.42;;;23.30;29.50;;;;;;5127030;27;46978;-28
2021/12/19 09:11:33;;;;;;;2.05;1.95;;;23.30;29.50;;;;;;5127260;27;46857;-28
2021/12/19 09:13:59;;;;;;;2.20;2.00;;;23.30;29.60;;;;;;5126672;27;47042;-28
2021/12/19 09:16:26;;;;;;;2.70;2.50;;;23.20;29.60;;;;;;5126793;27;46957;-27
2021/12/19 09:18:53;;;;;;;2.47;2.28;;;23.30;29.60;;;;;;5126449;27;46907;-27
2021/12/19 09:21:21;;;;;;;2.13;1.92;;;23.30;29.60;;;;;;5127046;27;47227;-27
2021/12/19 09:23:47;;;;;;;2.30;2.10;;;23.30;29.60;;;;;;5126695;27;47129;-28
2021/12/19 09:26:14;;;;;;;2.47;2.20;;;23.30;29.50;;;;;;5126698;27;46875;-27
2021/12/19 09:28:41;;;;;;;2.40;2.20;;;23.20;29.60;;;;;;5126397;27;46912;-28
2021/12/19 09:31:08;;;;;;;1.95;1.85;;;23.20;29.60;;;;;;5126885;27;47049;-27
2021/12/19 09:33:34;;;;;;;2.35;2.15;;;23.20;29.60;;;;;;5126295;27;47869;-28
2021/12/19 09:36:01;;;;;;;2.22;2.10;;;23.20;29.60;;;;;;5126326;27;46910;-27
2021/12/19 09:38:30;;;;;;;2.15;1.95;;;23.20;29.60;;;;;;5126736;27;47009;-28
2021/12/19 09:41:00;;;;;;;2.47;2.28;;;23.20;29.60;;;;;;5126835;27;46895;-31
2021/12/19 09:43:42;;;;;;;2.50;2.30;;;23.30;29.60;;;;;;5126285;27;46928;-27
2021/12/19 09:46:10;;;;;;;2.33;2.13;;;23.20;29.50;;;;;;5126526;27;47751;-29
2021/12/19 09:48:38;;;;;;;2.25;2.05;;;23.20;29.60;;;;;;5126525;27;46813;-28
2021/12/19 09:51:05;;;;;;;2.33;2.13;;;23.20;29.60;;;;;;5126728;27;47163;-27
2021/12/19 09:53:33;;;;;;;2.78;2.20;;;23.20;29.60;;;;;;5126253;27;47885;-28
2021/12/19 09:55:59;;;;;;;2.90;2.20;;;23.20;29.50;;;;;;5126234;27;46968;-27
2021/12/19 09:58:26;;;;;;;2.25;2.05;;;23.30;29.50;;;;;;5125888;27;47107;-28
2021/12/19 10:00:53;;;;;;;2.55;2.35;;;23.30;29.50;;;;;;5126835;27;46940;-28
2021/12/19 10:03:20;;;;;;;2.40;2.20;;;23.30;29.50;;;;;;5126113;27;47923;-27
2021/12/19 10:05:47;;;;;;;2.47;2.17;;;23.30;29.40;;;;;;5126194;27;47509;-28
2021/12/19 10:08:13;;;;;;;2.35;2.17;;;23.30;29.90;;;;;;5126034;27;46834;-29
2021/12/19 10:10:45;;;;;;;2.60;2.05;;;23.30;29.50;;;;;;5125843;27;47413;-28
2021/12/19 10:13:12;;;;;;;2.33;2.10;;;23.30;29.50;;;;;;5125994;27;47828;-27
2021/12/19 10:15:41;;;;;;;2.25;1.92;;;23.40;29.50;;;;;;5126023;27;46913;-27
2021/12/19 10:18:08;;;;;;;2.42;2.22;;;23.40;29.40;;;;;;5126398;27;46817;-27
2021/12/19 10:20:47;;;;;;;2.35;2.15;;;23.40;29.40;;;;;;5126326;27;46852;-29
2021/12/19 10:23:15;;;;;;;1.92;1.83;;;23.40;29.40;;;;;;5126022;27;47911;-28
2021/12/19 10:25:43;;;;;;;2.30;2.10;;;23.40;29.40;;;;;;5125807;27;46825;-28
2021/12/19 10:28:10;;;;;;;2.55;2.25;;;23.30;29.40;;;;;;5126221;27;46941;-19
2021/12/19 10:30:38;;;;;;;2.47;2.28;;;23.30;29.40;;;;;;5126464;27;46939;-19
2021/12/19 10:33:05;;;;;;;2.40;2.20;;;23.30;29.40;;;;;;5126065;27;47864;-19
2021/12/19 10:35:33;;;;;;;2.20;2.00;;;23.30;29.40;;;;;;5125383;27;47218;-18
2021/12/19 10:38:01;;;;;;;2.40;2.20;;;23.30;29.50;;;;;;5126019;27;46801;-19
2021/12/19 10:40:27;;;;;;;2.45;2.22;;;23.30;29.40;;;;;;5125849;27;46819;-19
2021/12/19 10:43:00;;;;;;;2.35;2.15;;;23.30;29.40;;;;;;5125990;27;48821;-19
2021/12/19 10:45:32;;;;;;;2.28;2.05;;;23.30;29.40;;;;;;5125213;27;46941;-18
2021/12/19 10:48:14;;;;;;;2.47;2.28;;;23.20;29.50;;;;;;5126080;27;46962;-19
2021/12/19 10:50:48;;;;;;;2.35;2.15;;;23.20;29.50;;;;;;5126167;27;47222;-18
2021/12/19 10:53:16;;;;;;;2.60;2.35;;;23.20;29.60;;;;;;5125716;27;48409;-19
2021/12/19 10:55:43;;;;;;;2.63;2.42;;;23.20;29.60;;;;;;5125378;27;46893;-19
2021/12/19 10:58:30;;;;;;;2.45;2.17;;;23.20;29.50;;;;;;5125912;27;46818;-19
2021/12/19 11:01:03;;;;;;;2.03;1.92;;;23.30;29.50;;;;;;5125935;27;47271;-19
2021/12/19 11:03:38;;;;;;;2.97;2.47;;;23.30;29.40;;;;;;5125554;27;47852;-19
2021/12/19 11:06:35;;;;;;;2.50;2.30;;;23.40;29.90;;;;;;5125502;27;46975;-18
2021/12/19 11:09:05;;;;;;;2.83;2.33;;;23.40;29.30;;;;;;5126331;27;46832;-27
2021/12/19 11:11:51;;;;;;;2.42;2.22;;;23.40;29.30;;;;;;5128727;27;47020;-28
2021/12/19 11:14:21;;;;;;;2.30;2.10;;;23.40;29.30;;;;;;5125918;27;49056;-28
2021/12/19 11:16:51;;;;;;;2.10;1.90;;;23.40;29.30;;;;;;5128802;27;46995;-28
2021/12/19 11:19:18;;;;;;;2.28;2.08;;;23.40;29.30;;;;;;5128878;27;46911;-28
2021/12/19 11:21:45;;;;;;;2.50;2.30;;;23.40;29.40;;;;;;5129295;27;47084;-28
2021/12/19 11:24:13;;;;;;;2.40;2.20;;;23.40;29.40;;;;;;5128517;27;48416;-28
2021/12/19 11:26:41;;;;;;;2.10;1.90;;;23.40;29.40;;;;;;5128906;27;46922;-28
2021/12/19 11:29:08;;;;;;;2.83;2.15;;;23.40;29.40;;;;;;5128569;27;46742;-27
2021/12/19 11:31:38;;;;;;;2.38;2.17;;;23.40;29.40;;;;;;5128760;27;47303;-28
2021/12/19 11:34:17;;;;;;;2.78;2.10;;;23.40;29.30;;;;;;5128084;27;49016;-27
2021/12/19 11:36:46;;;;;;;2.50;2.05;;;23.40;29.30;;;;;;5128767;27;47020;-27
2021/12/19 11:39:14;;;;;;;2.50;2.30;;;23.40;29.40;;;;;;5128542;27;46827;-28
2021/12/19 11:41:43;;;;;;;2.55;2.20;;;23.30;29.40;;;;;;5128970;27;47071;-27
2021/12/19 11:44:10;;;;;;;2.55;2.20;;;23.30;29.50;;;;;;5127873;27;47865;-27
2021/12/19 11:46:46;;;;;;;2.40;2.17;;;23.30;29.50;;;;;;5128645;27;46834;-28
2021/12/19 11:49:18;;;;;;;2.10;2.00;;;23.30;29.50;;;;;;5127977;27;47013;-28
2021/12/19 11:51:44;;;;;;;2.60;2.40;;;23.30;29.50;;;;;;5128613;27;47224;-30
2021/12/19 11:54:16;;;;;;;2.67;2.38;;;23.20;29.60;;;;;;5127990;27;47897;-28
2021/12/19 11:57:03;;;;;;;2.10;1.95;;;23.20;29.60;;;;;;5127966;27;47088;-27
2021/12/19 11:59:30;;;;;;;2.33;2.13;;;23.20;29.70;;;;;;5128053;27;46991;-28
2021/12/19 12:02:05;;;;;;;2.15;2.03;;;23.20;29.60;;;;;;5128750;27;46944;-27
2021/12/19 12:04:32;;;;;;;2.58;2.20;;;23.20;29.70;;;;;;5127766;27;48761;-28
2021/12/19 12:07:00;;;;;;;2.30;2.10;;;23.20;29.60;;;;;;5128207;27;46808;-28
2021/12/19 12:09:29;;;;;;;2.40;2.20;;;23.20;29.60;;;;;;5127731;27;46817;-28
2021/12/19 12:12:11;;;;;;;2.95;2.20;;;23.20;29.60;;;;;;5128114;27;46945;-29
2021/12/19 12:14:40;;;;;;;1.88;1.77;;;23.20;29.60;;;;;;5127648;27;49099;-28
2021/12/19 12:17:12;;;;;;;2.33;2.13;;;23.20;29.60;;;;;;5127814;27;46794;-27
2021/12/19 12:19:41;;;;;;;2.47;2.28;;;23.20;29.70;;;;;;5127583;27;46984;-28
2021/12/19 12:22:38;;;;;;;2.30;2.10;;;23.20;29.60;;;;;;5128139;27;47092;-28
2021/12/19 12:25:17;;;;;;;2.40;2.20;;;23.20;29.60;;;;;;5127279;27;48742;-27
2021/12/19 12:27:45;;;;;;;2.30;2.10;;;23.20;30.00;;;;;;5128309;27;47161;-28
2021/12/19 12:30:13;;;;;;;2.50;2.30;;;23.30;29.50;;;;;;5127676;27;46867;-28
2021/12/19 12:32:41;;;;;;;2.40;2.20;;;23.30;29.50;;;;;;5128009;27;47287;-27
2021/12/19 12:35:11;;;;;;;2.72;2.22;;;23.30;29.50;;;;;;5127329;27;47833;-27
2021/12/19 12:37:38;;;;;;;2.45;2.25;;;23.30;29.50;;;;;;5127780;27;46972;-28
2021/12/19 12:40:24;;;;;;;2.60;2.10;;;23.20;29.50;;;;;;5127317;27;46799;-27
2021/12/19 12:43:12;;;;;;;4.68;2.33;;;23.20;29.60;;;;;;5128068;27;47121;-28
2021/12/19 12:45:50;;;;;;;2.40;2.20;;;23.30;29.60;;;;;;5127112;27;48129;-28
2021/12/19 12:48:28;;;;;;;2.72;2.53;;;23.30;29.50;;;;;;5127203;27;46891;-28
2021/12/19 12:50:55;;;;;;;2.60;2.40;;;23.30;30.00;;;;;;5127742;27;46800;-28
2021/12/19 12:53:29;;;;;;;3.40;2.53;;;23.30;29.50;;;;;;5127347;27;46889;-27
2021/12/19 12:56:10;;;;;;;2.95;2.40;;;23.20;29.50;;;;;;5127448;27;46857;-28
2021/12/19 12:58:41;;;;;;;2.65;2.45;;;23.20;29.60;;;;;;5127044;27;47431;-28
2021/12/19 13:01:19;;;;;;;2.40;2.20;;;23.20;29.60;;;;;;5127505;27;46844;-28
2021/12/19 13:04:07;;;;;;;2.63;2.33;;;23.20;29.60;;;;;;5127391;27;46845;-28
2021/12/19 13:07:01;;;;;;;2.45;2.28;;;23.20;29.50;;;;;;5127120;27;46886;-29
2021/12/19 13:09:30;;;;;;;2.80;2.58;;;23.30;29.50;;;;;;5126848;27;46987;-29
2021/12/19 13:12:06;;;;;;;2.38;2.17;;;23.30;29.50;;;;;;5127277;27;46837;-28
2021/12/19 13:14:33;;;;;;;2.55;2.35;;;23.20;29.50;;;;;;5126797;27;46829;-29
2021/12/19 13:17:01;;;;;;;2.88;2.60;;;23.30;29.60;;;;;;5126803;27;49153;-27
2021/12/19 13:19:55;;;;;;;2.25;2.05;;;23.30;29.50;;;;;;5126397;27;46924;-28
2021/12/19 13:22:23;;;;;;;2.30;2.10;;;23.20;29.50;;;;;;5126858;27;46853;-28
2021/12/19 13:24:50;;;;;;;2.63;2.30;;;23.30;29.50;;;;;;5126549;27;46931;-28
2021/12/19 13:27:18;;;;;;;2.95;2.45;;;23.20;29.50;;;;;;5126736;27;48047;-27
2021/12/19 13:29:57;;;;;;;2.28;2.10;;;23.20;29.60;;;;;;5126650;27;47096;-28
2021/12/19 13:32:29;;;;;;;2.95;2.22;;;23.20;29.60;;;;;;5126480;27;46819;-27
2021/12/19 13:34:58;;;;;;;2.78;2.58;;;23.20;29.60;;;;;;5126607;27;46845;-28
2021/12/19 13:37:24;;;;;;;2.40;2.20;;;23.20;29.60;;;;;;5126720;27;49135;-27
2021/12/19 13:40:15;;;;;;;3.08;2.10;;;23.20;29.60;;;;;;5126436;27;47115;-28
2021/12/19 13:42:45;;;;;;;2.55;2.35;;;23.20;29.50;;;;;;5110623;27;47062;-27
2021/12/19 13:45:35;;;;;;;2.20;2.10;;;23.30;29.50;;;;;;5126475;27;46826;-27
2021/12/19 13:48:03;;;;;;;2.72;2.53;;;23.30;29.50;;;;;;5126369;27;47891;-28